Time;durP1;ratioP1;P1;durP2;ratioP2;P2;SDS_P1;SDS_P2;PMS_P1;PMS_P2;Temp;Humidity;BMP_temperature;BMP_pressure;BME280_temperature;BME280_humidity;BME280_pressure;Samples;Min_cycle;Max_cycle;Signal;HPM_P1;HPM_P2
2020/12/09 00:01:22;;;;;;;8.02;6.30;;;-1.50;65.30;;;;;;5022381;28;20116;-64
2020/12/09 00:03:48;;;;;;;7.57;5.07;;;-1.50;65.10;;;;;;5018597;28;20096;-64
2020/12/09 00:06:14;;;;;;;8.98;6.18;;;-1.60;65.30;;;;;;5015826;28;20025;-64
2020/12/09 00:08:39;;;;;;;12.50;5.85;;;-1.60;65.30;;;;;;5019162;28;20026;-64
2020/12/09 00:11:07;;;;;;;11.82;5.68;;;-1.60;65.50;;;;;;5018660;28;20030;-64
2020/12/09 00:13:33;;;;;;;9.80;5.90;;;-1.60;65.10;;;;;;5013400;28;20076;-64
2020/12/09 00:15:59;;;;;;;9.52;5.72;;;-1.60;65.30;;;;;;5019723;28;20025;-64
2020/12/09 00:18:25;;;;;;;9.02;5.47;;;-1.60;65.10;;;;;;5017604;28;20028;-63
2020/12/09 00:20:50;;;;;;;10.13;5.13;;;-1.60;65.20;;;;;;5022442;28;20477;-63
2020/12/09 00:23:16;;;;;;;9.27;5.40;;;-1.60;65.10;;;;;;5017958;28;20026;-64
2020/12/09 00:25:42;;;;;;;7.57;5.50;;;-1.60;65.10;;;;;;5025931;28;20021;-63
2020/12/09 00:28:08;;;;;;;9.20;6.20;;;-1.60;65.20;;;;;;5020816;28;20053;-63
2020/12/09 00:30:34;;;;;;;9.43;5.30;;;-1.60;64.90;;;;;;5023797;28;20021;-64
2020/12/09 00:32:59;;;;;;;8.23;5.05;;;-1.60;65.40;;;;;;5026210;28;20029;-64
2020/12/09 00:35:25;;;;;;;9.27;5.82;;;-1.60;65.60;;;;;;5023367;28;20092;-64
2020/12/09 00:37:51;;;;;;;9.15;5.97;;;-1.60;65.50;;;;;;5023396;28;20029;-63
2020/12/09 00:40:16;;;;;;;8.82;6.05;;;-1.50;65.20;;;;;;5023742;28;20450;-63
2020/12/09 00:42:42;;;;;;;10.82;6.18;;;-1.50;65.20;;;;;;5024947;28;20030;-64
2020/12/09 00:45:08;;;;;;;10.40;5.82;;;-1.50;65.20;;;;;;5021926;28;20017;-63
2020/12/09 00:47:34;;;;;;;11.93;6.43;;;-1.50;64.90;;;;;;5022600;28;20037;-64
2020/12/09 00:52:41;;;;;;;10.50;5.63;;;-1.50;65.30;;;;;;5022455;28;20041;-63
2020/12/09 00:55:07;;;;;;;9.95;5.68;;;-1.50;64.90;;;;;;5025398;28;20033;-64
2020/12/09 00:57:33;;;;;;;12.13;5.97;;;-1.50;64.80;;;;;;5021268;28;20108;-63
2020/12/09 00:59:58;;;;;;;10.90;6.28;;;-1.60;64.80;;;;;;5024035;28;20160;-64
2020/12/09 01:02:24;;;;;;;8.82;5.68;;;-1.60;64.50;;;;;;5019034;28;20033;-63
2020/12/09 01:04:51;;;;;;;7.75;5.07;;;-1.60;64.80;;;;;;5022688;28;20397;-64
2020/12/09 01:07:17;;;;;;;10.48;5.65;;;-1.60;65.10;;;;;;5032253;28;20033;-64
2020/12/09 01:09:43;;;;;;;10.50;5.95;;;-1.60;65.00;;;;;;5023266;28;20097;-63
2020/12/09 01:12:10;;;;;;;10.73;6.30;;;-1.60;65.30;;;;;;5023868;28;20111;-63
2020/12/09 01:14:35;;;;;;;9.73;5.95;;;-1.60;64.90;;;;;;5019215;28;20025;-63
2020/12/09 01:17:01;;;;;;;10.55;5.95;;;-1.60;64.90;;;;;;5026711;28;20032;-63
2020/12/09 01:19:27;;;;;;;9.40;5.85;;;-1.60;65.00;;;;;;5022402;28;20029;-63
2020/12/09 01:21:53;;;;;;;12.32;7.18;;;-1.60;65.50;;;;;;5020900;28;20416;-64
2020/12/09 01:24:19;;;;;;;11.45;6.65;;;-1.60;64.70;;;;;;5027333;28;20116;-64
2020/12/09 01:26:45;;;;;;;13.70;8.02;;;-1.70;65.00;;;;;;5022237;28;20112;-64
2020/12/09 01:29:11;;;;;;;13.65;8.35;;;-1.80;64.70;;;;;;5019412;28;20109;-64
2020/12/09 01:31:36;;;;;;;13.20;7.82;;;-1.90;65.00;;;;;;5024506;28;20036;-63
2020/12/09 01:34:02;;;;;;;11.05;7.63;;;-2.00;65.20;;;;;;5028194;28;20135;-64
2020/12/09 01:36:28;;;;;;;12.00;7.55;;;-2.10;65.50;;;;;;5021532;28;20049;-63
2020/12/09 01:38:55;;;;;;;10.32;6.15;;;-2.10;65.80;;;;;;5021289;28;20037;-63
2020/12/09 01:41:24;;;;;;;11.02;6.90;;;-2.10;66.10;;;;;;5024541;28;20287;-63
2020/12/09 01:43:51;;;;;;;14.63;6.47;;;-2.10;65.90;;;;;;5019338;28;20034;-64
2020/12/09 01:46:18;;;;;;;10.43;6.50;;;-2.10;66.00;;;;;;5015669;28;20109;-64
2020/12/09 01:48:45;;;;;;;13.15;7.78;;;-2.10;66.30;;;;;;5022820;28;20022;-63
2020/12/09 01:51:16;;;;;;;12.45;7.25;;;-2.10;66.40;;;;;;5015377;28;20022;-63
2020/12/09 01:53:42;;;;;;;9.57;6.60;;;-2.10;66.30;;;;;;5024643;28;20029;-63
2020/12/09 01:56:07;;;;;;;9.68;6.68;;;-2.10;66.40;;;;;;5022559;28;20493;-64
2020/12/09 01:58:33;;;;;;;12.05;6.82;;;-2.10;66.50;;;;;;5015960;28;20018;-63
2020/12/09 02:00:59;;;;;;;14.25;6.82;;;-2.10;66.70;;;;;;5022563;28;20116;-64
2020/12/09 02:03:27;;;;;;;10.85;6.85;;;-2.10;66.70;;;;;;5019792;28;20033;-63
2020/12/09 02:05:54;;;;;;;13.20;6.72;;;-2.10;67.10;;;;;;5018017;28;20026;-63
2020/12/09 02:08:20;;;;;;;11.57;6.85;;;-2.10;66.80;;;;;;5020020;28;20117;-63
2020/12/09 02:10:55;;;;;;;12.20;7.13;;;-2.10;67.80;;;;;;5017587;28;20045;-63
2020/12/09 02:13:21;;;;;;;13.48;7.50;;;-2.10;67.30;;;;;;5023793;28;20034;-63
2020/12/09 02:15:47;;;;;;;9.55;6.00;;;-2.00;67.40;;;;;;5023938;28;20041;-63
2020/12/09 02:18:12;;;;;;;14.70;8.25;;;-2.00;67.30;;;;;;5024210;28;20053;-63
2020/12/09 02:20:38;;;;;;;10.13;6.47;;;-2.00;67.30;;;;;;5016431;28;20105;-63
2020/12/09 02:23:04;;;;;;;12.23;7.53;;;-2.00;67.30;;;;;;5018304;28;20080;-63
2020/12/09 02:25:29;;;;;;;13.68;8.00;;;-2.00;67.40;;;;;;5017136;28;20373;-63
2020/12/09 02:27:55;;;;;;;15.82;7.60;;;-2.00;67.90;;;;;;5017005;28;20042;-63
2020/12/09 02:30:21;;;;;;;9.95;6.63;;;-2.00;68.00;;;;;;5028599;28;20109;-63
2020/12/09 02:32:46;;;;;;;15.07;7.75;;;-1.90;68.30;;;;;;5031499;28;20468;-63
2020/12/09 02:35:12;;;;;;;8.52;5.97;;;-1.90;68.40;;;;;;5019242;28;20029;-63
2020/12/09 02:37:38;;;;;;;11.68;6.85;;;-1.90;68.80;;;;;;5021147;28;20110;-63
2020/12/09 02:40:04;;;;;;;13.25;7.57;;;-1.90;68.40;;;;;;5016591;28;20112;-63
2020/12/09 02:42:29;;;;;;;9.23;7.40;;;-1.90;68.70;;;;;;5017583;28;20410;-63
2020/12/09 02:44:55;;;;;;;11.68;6.95;;;-1.90;68.40;;;;;;5015965;28;20053;-63
2020/12/09 02:47:21;;;;;;;9.27;6.32;;;-1.90;68.80;;;;;;5024314;28;20444;-63
2020/12/09 02:49:47;;;;;;;15.32;7.97;;;-1.90;68.60;;;;;;5015117;28;20018;-63
2020/12/09 02:52:12;;;;;;;13.40;7.47;;;-1.90;68.90;;;;;;5016774;28;20017;-63
2020/12/09 02:54:38;;;;;;;12.65;8.10;;;-1.90;69.00;;;;;;5018110;28;20101;-63
2020/12/09 02:57:04;;;;;;;12.20;7.30;;;-1.90;69.00;;;;;;5019556;28;20033;-63
2020/12/09 02:59:29;;;;;;;13.60;7.68;;;-1.90;69.40;;;;;;5016580;28;20508;-63
2020/12/09 03:01:55;;;;;;;12.93;6.97;;;-1.90;69.70;;;;;;5021472;28;20025;-63
2020/12/09 03:04:20;;;;;;;12.35;7.75;;;-1.90;69.60;;;;;;5022833;28;20044;-63
2020/12/09 03:06:46;;;;;;;11.85;7.45;;;-1.90;69.50;;;;;;5018292;28;20363;-63
2020/12/09 03:09:12;;;;;;;16.58;7.75;;;-1.90;69.80;;;;;;5017782;28;20062;-63
2020/12/09 03:11:38;;;;;;;11.60;7.57;;;-1.80;69.60;;;;;;5021901;28;20426;-63
2020/12/09 03:14:03;;;;;;;11.48;6.88;;;-1.80;69.80;;;;;;5018789;28;20026;-63
2020/12/09 03:16:29;;;;;;;16.80;7.78;;;-1.80;69.60;;;;;;5016911;28;20489;-63
2020/12/09 03:18:55;;;;;;;16.48;8.82;;;-1.80;70.10;;;;;;5022297;28;20033;-63
2020/12/09 03:21:20;;;;;;;10.25;6.82;;;-1.80;70.20;;;;;;5021043;28;20022;-63
2020/12/09 03:23:46;;;;;;;15.35;8.25;;;-1.80;70.50;;;;;;5018146;28;20458;-63
2020/12/09 03:26:12;;;;;;;10.95;7.20;;;-1.70;70.50;;;;;;5017683;28;20080;-64
2020/12/09 03:28:38;;;;;;;13.00;7.18;;;-1.70;70.20;;;;;;5020290;28;20124;-63
2020/12/09 03:31:06;;;;;;;15.32;8.95;;;-1.70;70.50;;;;;;5025686;28;20026;-63
2020/12/09 03:33:32;;;;;;;12.13;8.38;;;-1.70;70.70;;;;;;5023296;28;20497;-63
2020/12/09 03:35:58;;;;;;;13.57;8.18;;;-1.70;70.50;;;;;;5020110;28;20029;-63
2020/12/09 03:38:24;;;;;;;14.98;8.73;;;-1.70;70.90;;;;;;5017058;28;20104;-63
2020/12/09 03:40:49;;;;;;;17.25;8.50;;;-1.80;70.70;;;;;;5015285;28;20091;-63
2020/12/09 03:43:16;;;;;;;15.15;8.70;;;-1.70;71.40;;;;;;5016776;28;20466;-63
2020/12/09 03:45:42;;;;;;;14.85;8.68;;;-1.80;71.20;;;;;;5013673;28;20026;-63
2020/12/09 03:48:09;;;;;;;12.80;8.57;;;-1.80;71.40;;;;;;5019223;28;20396;-63
2020/12/09 03:50:34;;;;;;;15.32;8.55;;;-1.80;71.20;;;;;;5018946;28;20117;-63
2020/12/09 03:53:00;;;;;;;16.65;8.77;;;-1.80;71.60;;;;;;5022213;28;20174;-63
2020/12/09 03:55:26;;;;;;;15.50;7.82;;;-1.80;71.60;;;;;;5020380;28;20101;-63
2020/12/09 03:57:52;;;;;;;14.65;8.90;;;-1.80;71.70;;;;;;5017731;28;20029;-63
2020/12/09 04:00:18;;;;;;;15.68;8.88;;;-1.80;71.90;;;;;;5015461;28;20021;-63
2020/12/09 04:02:44;;;;;;;14.35;7.97;;;-1.80;72.00;;;;;;5021204;28;20034;-63
2020/12/09 04:05:10;;;;;;;14.02;8.32;;;-1.80;72.30;;;;;;5019657;28;20013;-63
2020/12/09 04:07:35;;;;;;;15.95;8.20;;;-1.80;72.80;;;;;;5019253;28;20028;-63
2020/12/09 04:10:03;;;;;;;12.63;8.43;;;-1.80;72.30;;;;;;5020004;28;20049;-63
2020/12/09 04:12:29;;;;;;;15.50;8.77;;;-1.80;72.30;;;;;;5016916;28;20065;-63
2020/12/09 04:14:54;;;;;;;16.83;9.23;;;-1.80;71.80;;;;;;5016809;28;20555;-63
2020/12/09 04:17:20;;;;;;;14.10;8.63;;;-1.80;72.20;;;;;;5013345;28;20057;-63
2020/12/09 04:19:47;;;;;;;16.65;9.02;;;-1.80;72.50;;;;;;5020303;28;20030;-63
2020/12/09 04:22:13;;;;;;;17.50;8.82;;;-1.80;72.00;;;;;;5016826;28;20052;-63
2020/12/09 04:24:39;;;;;;;19.25;9.85;;;-1.80;72.60;;;;;;5017040;28;20386;-63
2020/12/09 04:27:05;;;;;;;13.70;8.10;;;-1.80;73.10;;;;;;5012817;28;20038;-63
2020/12/09 04:29:31;;;;;;;20.83;9.05;;;-1.80;72.50;;;;;;5020479;28;20373;-62
2020/12/09 04:31:56;;;;;;;16.27;8.93;;;-1.70;72.80;;;;;;5017272;28;20018;-63
2020/12/09 04:34:22;;;;;;;14.65;9.13;;;-1.80;73.00;;;;;;5021970;28;20033;-63
2020/12/09 04:36:49;;;;;;;17.35;9.27;;;-1.70;72.70;;;;;;5016079;28;20036;-63
2020/12/09 04:39:17;;;;;;;15.10;9.50;;;-1.80;72.90;;;;;;5015334;28;20042;-63
2020/12/09 04:41:45;;;;;;;15.73;8.55;;;-1.80;72.90;;;;;;5017216;28;20057;-63
2020/12/09 04:44:11;;;;;;;16.38;10.38;;;-1.80;72.90;;;;;;5015053;28;20029;-63
2020/12/09 04:46:48;;;;;;;13.80;8.23;;;-1.80;73.20;;;;;;5017703;28;20454;-63
2020/12/09 04:49:22;;;;;;;18.75;8.93;;;-1.70;73.00;;;;;;5016467;28;20124;-63
2020/12/09 04:52:05;;;;;;;16.35;8.63;;;-1.70;73.40;;;;;;5018439;28;20492;-62
2020/12/09 04:54:42;;;;;;;13.23;8.50;;;-1.70;73.20;;;;;;5015531;28;20096;-62
2020/12/09 04:57:37;;;;;;;19.27;9.65;;;-1.70;73.10;;;;;;5017403;28;20033;-62
2020/12/09 05:00:12;;;;;;;12.18;8.02;;;-1.80;73.30;;;;;;5016984;28;20374;-63
2020/12/09 05:02:41;;;;;;;11.65;7.63;;;-1.80;73.30;;;;;;5018308;28;20036;-63
2020/12/09 05:05:07;;;;;;;14.93;9.43;;;-1.70;73.90;;;;;;5021343;28;20033;-63
2020/12/09 05:07:37;;;;;;;20.80;9.45;;;-1.70;74.10;;;;;;5020504;28;20377;-62
2020/12/09 05:10:06;;;;;;;19.17;9.50;;;-1.70;74.00;;;;;;5013361;28;20034;-63
2020/12/09 05:12:43;;;;;;;20.90;9.57;;;-1.70;73.90;;;;;;5018247;28;20026;-62
2020/12/09 05:15:17;;;;;;;20.10;10.45;;;-1.70;73.80;;;;;;5017546;28;20029;-62
2020/12/09 05:18:09;;;;;;;18.45;9.88;;;-1.70;73.70;;;;;;5019498;28;20030;-62
2020/12/09 05:20:37;;;;;;;19.42;9.48;;;-1.80;74.30;;;;;;5022031;28;20032;-63
2020/12/09 05:23:10;;;;;;;17.67;8.98;;;-1.80;74.50;;;;;;5019067;28;20046;-62
2020/12/09 05:25:38;;;;;;;15.15;9.13;;;-1.80;74.60;;;;;;5019969;28;20042;-63
2020/12/09 05:28:04;;;;;;;16.85;9.52;;;-1.80;74.60;;;;;;5023573;28;20041;-62
2020/12/09 05:30:41;;;;;;;20.55;10.55;;;-1.80;75.10;;;;;;5015943;28;20026;-62
2020/12/09 05:33:08;;;;;;;14.88;9.82;;;-1.70;75.00;;;;;;5024292;28;20042;-62
2020/12/09 05:35:34;;;;;;;14.52;8.80;;;-1.70;75.10;;;;;;5017616;28;20043;-62
2020/12/09 05:38:07;;;;;;;14.65;9.05;;;-1.70;75.30;;;;;;5025966;28;20025;-62
2020/12/09 05:40:33;;;;;;;17.35;9.52;;;-1.70;75.30;;;;;;5021065;28;20381;-62
2020/12/09 05:42:59;;;;;;;16.55;8.95;;;-1.70;75.50;;;;;;5021588;28;20041;-62
2020/12/09 05:45:24;;;;;;;16.73;8.90;;;-1.60;75.30;;;;;;5015669;28;20017;-63
2020/12/09 05:48:23;;;;;;;15.38;9.95;;;-1.60;75.20;;;;;;5021984;28;20057;-62
2020/12/09 05:50:54;;;;;;;19.50;9.95;;;-1.60;75.60;;;;;;5018257;28;20109;-63
2020/12/09 05:53:28;;;;;;;19.55;9.50;;;-1.50;75.30;;;;;;5024569;28;20393;-62
2020/12/09 05:56:08;;;;;;;18.67;11.00;;;-1.60;75.50;;;;;;5022475;28;20100;-63
2020/12/09 05:58:34;;;;;;;18.92;8.77;;;-1.50;75.50;;;;;;5023338;28;20097;-62
2020/12/09 06:01:09;;;;;;;16.23;8.57;;;-1.50;75.70;;;;;;5019440;28;20037;-62
2020/12/09 06:03:43;;;;;;;16.15;9.68;;;-1.50;76.00;;;;;;5018538;28;20025;-62
2020/12/09 06:06:23;;;;;;;21.17;11.30;;;-1.50;75.90;;;;;;5018213;28;20351;-62
2020/12/09 06:08:54;;;;;;;23.20;10.57;;;-1.40;76.10;;;;;;5024780;28;20484;-63
2020/12/09 06:11:24;;;;;;;19.60;10.60;;;-1.40;76.40;;;;;;5020989;28;20026;-62
2020/12/09 06:13:50;;;;;;;16.88;8.20;;;-1.40;76.60;;;;;;5022031;28;20029;-62
2020/12/09 06:16:18;;;;;;;19.95;9.52;;;-1.40;76.50;;;;;;5017659;28;20379;-63
2020/12/09 06:18:46;;;;;;;17.65;10.50;;;-1.30;76.50;;;;;;5018851;28;20042;-62
2020/12/09 06:21:12;;;;;;;21.52;10.20;;;-1.30;76.60;;;;;;5019840;28;20080;-63
2020/12/09 06:23:38;;;;;;;16.88;10.05;;;-1.20;76.50;;;;;;5018037;28;20052;-62
2020/12/09 06:26:05;;;;;;;22.63;11.80;;;-1.30;76.60;;;;;;5024121;28;20037;-62
2020/12/09 06:28:34;;;;;;;20.83;10.63;;;-1.30;76.60;;;;;;5022771;28;20068;-63
2020/12/09 06:31:20;;;;;;;15.45;9.57;;;-1.30;76.90;;;;;;5019144;28;20022;-63
2020/12/09 06:33:56;;;;;;;21.27;9.85;;;-1.20;77.40;;;;;;5019716;28;20014;-63
2020/12/09 06:36:27;;;;;;;23.05;10.90;;;-1.20;76.90;;;;;;5018451;28;20034;-63
2020/12/09 06:39:04;;;;;;;20.30;11.50;;;-1.20;77.30;;;;;;5019697;28;20026;-62
2020/12/09 06:41:34;;;;;;;20.10;10.00;;;-1.20;77.40;;;;;;5017890;28;20034;-63
2020/12/09 06:44:11;;;;;;;22.25;11.07;;;-1.20;77.50;;;;;;5019901;28;20121;-62
2020/12/09 06:46:39;;;;;;;22.50;11.00;;;-1.20;78.00;;;;;;5020657;28;20053;-51
2020/12/09 06:49:25;;;;;;;18.67;9.98;;;-1.20;77.50;;;;;;5024161;28;20076;-50
2020/12/09 06:51:51;;;;;;;16.70;10.45;;;-1.20;77.60;;;;;;5019414;28;20133;-52
2020/12/09 06:54:17;;;;;;;18.95;10.98;;;-1.20;77.80;;;;;;5027610;28;20093;-49
2020/12/09 06:56:43;;;;;;;18.50;11.13;;;-1.10;77.80;;;;;;5025194;28;20021;-51
2020/12/09 06:59:26;;;;;;;23.63;11.20;;;-1.10;78.00;;;;;;5020149;28;20030;-49
2020/12/09 07:01:59;;;;;;;20.60;10.88;;;-1.20;77.70;;;;;;5021334;28;20489;-50
2020/12/09 07:04:45;;;;;;;20.10;10.40;;;-1.20;78.10;;;;;;5018642;28;20061;-49
2020/12/09 07:07:27;;;;;;;20.27;10.25;;;-1.20;78.40;;;;;;5026327;28;20108;-50
2020/12/09 07:09:53;;;;;;;41.80;24.00;;;-1.10;78.50;;;;;;5021378;28;20374;-51
2020/12/09 07:12:22;;;;;;;29.58;18.42;;;-1.10;78.60;;;;;;5019167;28;20065;-54
2020/12/09 07:14:49;;;;;;;25.75;15.05;;;-1.10;78.50;;;;;;5021460;28;20029;-51
2020/12/09 07:17:21;;;;;;;24.73;15.90;;;-1.10;78.50;;;;;;5018970;28;20029;-53
2020/12/09 07:19:46;;;;;;;;;;;-1.00;78.80;;;;;;5025145;28;20028;-52
2020/12/09 07:22:12;;;;;;;21.27;12.30;;;-1.10;78.90;;;;;;5024037;28;20345;-50
2020/12/09 07:24:38;;;;;;;21.48;12.68;;;-1.10;78.80;;;;;;5023344;28;20029;-53
2020/12/09 07:27:03;;;;;;;36.85;23.58;;;-1.10;78.60;;;;;;5019368;28;20164;-54
2020/12/09 07:29:29;;;;;;;41.92;24.42;;;-1.10;78.70;;;;;;5022164;28;20065;-54
2020/12/09 07:32:00;;;;;;;55.05;32.17;;;-1.10;79.00;;;;;;5022112;28;20423;-50
2020/12/09 07:34:27;;;;;;;25.02;14.52;;;-1.10;78.80;;;;;;5018813;28;20113;-52
2020/12/09 07:36:54;;;;;;;45.22;28.45;;;-1.10;78.80;;;;;;5018440;28;20040;-52
2020/12/09 07:39:32;;;;;;;31.08;20.92;;;-1.10;78.90;;;;;;5022624;28;20282;-53
2020/12/09 07:42:00;;;;;;;45.63;27.27;;;-1.10;79.00;;;;;;5023139;28;20037;-52
2020/12/09 07:44:27;;;;;;;59.88;38.67;;;-1.10;79.10;;;;;;5021981;28;20052;-50
2020/12/09 07:46:58;;;;;;;76.13;45.20;;;-1.10;79.20;;;;;;5019585;28;20376;-51
2020/12/09 07:49:25;;;;;;;421.00;185.35;;;-1.10;79.20;;;;;;5017066;28;20027;-51
2020/12/09 07:51:52;;;;;;;37.22;21.70;;;-1.10;79.80;;;;;;5020135;28;20076;-54
2020/12/09 07:54:19;;;;;;;34.13;19.88;;;-1.20;79.70;;;;;;5020000;28;20033;-50
2020/12/09 07:56:46;;;;;;;28.45;15.18;;;-1.20;79.70;;;;;;5017578;28;20381;-50
2020/12/09 07:59:14;;;;;;;27.88;17.90;;;-1.20;79.70;;;;;;5011612;28;20037;-51
2020/12/09 08:01:40;;;;;;;25.48;14.05;;;-1.20;79.90;;;;;;5016974;28;20179;-52
2020/12/09 08:04:09;;;;;;;30.38;17.48;;;-1.10;80.00;;;;;;5018596;28;20048;-54
2020/12/09 08:06:35;;;;;;;26.65;15.85;;;-1.10;80.10;;;;;;5019376;28;20108;-53
2020/12/09 08:09:14;;;;;;;23.15;12.77;;;-1.10;80.00;;;;;;5020516;28;20038;-52
2020/12/09 08:11:43;;;;;;;23.30;14.02;;;-1.10;79.90;;;;;;5022691;28;20119;-51
2020/12/09 08:14:10;;;;;;;23.25;13.73;;;-1.10;80.20;;;;;;5018680;28;20060;-52
2020/12/09 08:16:36;;;;;;;22.85;15.43;;;-1.00;80.30;;;;;;5017476;28;21323;-52
2020/12/09 08:19:12;;;;;;;24.05;12.35;;;-1.00;80.50;;;;;;5020350;28;20051;-50
2020/12/09 08:21:38;;;;;;;22.52;12.05;;;-1.00;80.20;;;;;;5014622;28;20036;-53
2020/12/09 08:24:13;;;;;;;17.88;9.75;;;-0.90;80.70;;;;;;5017088;28;20033;-54
2020/12/09 08:26:42;;;;;;;15.85;9.35;;;-0.80;80.60;;;;;;5013148;28;20398;-54
2020/12/09 08:29:16;;;;;;;21.02;10.82;;;-0.70;80.40;;;;;;5016229;28;20638;-50
2020/12/09 08:31:41;;;;;;;23.25;11.98;;;-0.70;79.80;;;;;;5013273;28;20038;-52
2020/12/09 08:34:14;;;;;;;20.55;11.75;;;-0.70;80.00;;;;;;5012572;28;20036;-54
2020/12/09 08:36:40;;;;;;;25.33;13.77;;;-0.70;79.50;;;;;;5017304;28;20088;-52
2020/12/09 08:39:06;;;;;;;18.70;10.93;;;-0.80;79.50;;;;;;5012653;28;20113;-52
2020/12/09 08:41:34;;;;;;;19.25;10.75;;;-0.80;79.40;;;;;;5017020;28;20038;-54
2020/12/09 08:44:01;;;;;;;19.52;11.90;;;-0.80;79.70;;;;;;5016640;28;20026;-51
2020/12/09 08:46:28;;;;;;;24.63;11.65;;;-0.80;79.70;;;;;;5016366;28;20033;-52
2020/12/09 08:48:55;;;;;;;21.98;12.23;;;-0.80;80.00;;;;;;5020020;28;20350;-51
2020/12/09 08:51:29;;;;;;;16.25;9.80;;;-0.70;80.10;;;;;;5019470;28;20033;-52
2020/12/09 08:53:57;;;;;;;22.75;12.10;;;-0.70;80.00;;;;;;5021340;28;20064;-50
2020/12/09 08:56:29;;;;;;;19.67;10.93;;;-0.70;79.70;;;;;;5016854;28;20565;-53
2020/12/09 08:58:55;;;;;;;21.48;11.38;;;-0.70;79.50;;;;;;5015613;28;20105;-52
2020/12/09 09:01:21;;;;;;;22.25;11.57;;;-0.70;79.80;;;;;;5017942;28;20499;-50
2020/12/09 09:03:48;;;;;;;22.50;10.98;;;-0.70;79.70;;;;;;5021366;28;20029;-52
2020/12/09 09:06:14;;;;;;;23.27;12.10;;;-0.70;79.70;;;;;;5022770;28;20029;-50
2020/12/09 09:08:39;;;;;;;21.02;10.98;;;-0.80;79.60;;;;;;5017516;28;20414;-54
2020/12/09 09:11:05;;;;;;;20.67;11.90;;;-0.80;79.50;;;;;;5016901;28;20045;-52
2020/12/09 09:13:31;;;;;;;22.40;11.80;;;-0.80;79.80;;;;;;5014152;28;20064;-52
2020/12/09 09:15:57;;;;;;;20.20;11.60;;;-0.80;80.20;;;;;;5022506;28;20397;-52
2020/12/09 09:18:23;;;;;;;17.30;10.15;;;-0.70;80.00;;;;;;5019422;28;20471;-54
2020/12/09 09:20:50;;;;;;;18.02;10.32;;;-0.80;80.20;;;;;;5016484;28;20152;-50
2020/12/09 09:23:16;;;;;;;17.67;9.95;;;-0.70;79.50;;;;;;5020445;28;20029;-54
2020/12/09 09:25:41;;;;;;;17.33;9.70;;;-0.70;79.70;;;;;;5020508;28;20060;-51
2020/12/09 09:28:07;;;;;;;20.67;12.68;;;-0.70;79.40;;;;;;5016887;28;20045;-54
2020/12/09 09:30:33;;;;;;;19.30;11.65;;;-0.70;79.00;;;;;;5020340;28;20025;-54
2020/12/09 09:32:59;;;;;;;24.40;12.10;;;-0.80;78.60;;;;;;5017824;28;20038;-52
2020/12/09 09:35:24;;;;;;;16.80;9.88;;;-0.90;79.00;;;;;;5021949;28;20036;-54
2020/12/09 09:37:50;;;;;;;21.20;11.90;;;-0.90;79.40;;;;;;5019278;28;20124;-54
2020/12/09 09:40:16;;;;;;;18.65;10.18;;;-0.90;79.90;;;;;;5022691;28;20396;-52
2020/12/09 09:42:42;;;;;;;20.55;11.27;;;-0.80;80.10;;;;;;5019072;28;20037;-51
2020/12/09 09:45:10;;;;;;;24.85;11.18;;;-0.70;80.00;;;;;;5019150;28;20374;-50
2020/12/09 09:47:36;;;;;;;16.40;9.65;;;-0.60;79.30;;;;;;5018603;28;20029;-50
2020/12/09 09:50:05;;;;;;;23.17;11.77;;;-0.70;78.60;;;;;;5019731;28;20477;-53
2020/12/09 09:52:30;;;;;;;15.65;10.15;;;-0.70;78.70;;;;;;5019841;28;20029;-54
2020/12/09 09:54:56;;;;;;;17.58;9.80;;;-0.70;79.40;;;;;;5019346;28;20482;-54
2020/12/09 09:57:22;;;;;;;15.93;10.13;;;-0.70;79.00;;;;;;5016318;28;20018;-50
2020/12/09 09:59:47;;;;;;;17.10;9.48;;;-0.70;79.20;;;;;;5020977;28;20034;-52
2020/12/09 10:02:13;;;;;;;19.27;10.55;;;-0.60;79.60;;;;;;5019479;28;20026;-53
2020/12/09 10:04:39;;;;;;;16.40;9.45;;;-0.60;79.50;;;;;;5021324;28;20634;-54
2020/12/09 10:07:04;;;;;;;16.67;9.68;;;-0.50;79.30;;;;;;5020591;28;20026;-53
2020/12/09 10:09:30;;;;;;;14.55;9.32;;;-0.50;79.00;;;;;;5018719;28;20359;-51
2020/12/09 10:11:58;;;;;;;17.20;9.48;;;-0.40;79.00;;;;;;5022771;28;20830;-53
2020/12/09 10:14:24;;;;;;;16.02;8.75;;;-0.30;79.00;;;;;;5015803;28;20037;-50
2020/12/09 10:16:51;;;;;;;18.80;12.45;;;-0.30;78.60;;;;;;5014998;28;20029;-53
2020/12/09 10:19:17;;;;;;;16.35;9.32;;;-0.30;78.40;;;;;;5015144;28;20037;-53
2020/12/09 10:21:43;;;;;;;20.38;11.45;;;-0.30;77.90;;;;;;5015235;28;20032;-51
2020/12/09 10:24:09;;;;;;;17.17;10.90;;;-0.30;77.30;;;;;;5020270;28;20144;-55
2020/12/09 10:26:39;;;;;;;17.63;11.90;;;-0.40;77.40;;;;;;5018176;28;20428;-54
2020/12/09 10:29:09;;;;;;;16.50;9.48;;;-0.50;77.50;;;;;;5017315;28;20029;-55
2020/12/09 10:31:46;;;;;;;13.00;9.20;;;-0.60;77.60;;;;;;5020136;28;20651;-53
2020/12/09 10:34:15;;;;;;;17.10;9.85;;;-0.60;78.00;;;;;;5013259;28;20422;-53
2020/12/09 10:36:47;;;;;;;19.35;9.73;;;-0.60;78.00;;;;;;5011204;28;20037;-54
2020/12/09 10:39:13;;;;;;;19.05;10.35;;;-0.60;78.20;;;;;;5017167;28;20049;-54
2020/12/09 10:41:40;;;;;;;15.35;9.43;;;-0.60;78.50;;;;;;5014961;28;20065;-53
2020/12/09 10:44:06;;;;;;;21.58;12.95;;;-0.60;78.40;;;;;;5013468;28;20024;-51
2020/12/09 10:46:34;;;;;;;26.88;17.20;;;-0.60;78.00;;;;;;5013932;28;20033;-51
2020/12/09 10:49:01;;;;;;;33.17;19.90;;;-0.70;77.80;;;;;;5014189;28;20029;-53
2020/12/09 10:51:28;;;;;;;26.55;16.42;;;-0.80;77.80;;;;;;5015209;28;20133;-55
2020/12/09 10:53:55;;;;;;;31.20;19.00;;;-0.80;78.30;;;;;;5021813;28;20032;-54
2020/12/09 10:56:31;;;;;;;23.40;14.13;;;-0.80;78.30;;;;;;5017365;28;20036;-53
2020/12/09 10:59:00;;;;;;;29.05;16.48;;;-0.80;78.30;;;;;;5015638;28;20067;-50
2020/12/09 11:01:27;;;;;;;23.10;13.77;;;-0.80;78.40;;;;;;5016237;28;20039;-54
2020/12/09 11:03:54;;;;;;;20.77;11.52;;;-0.80;78.30;;;;;;5005942;28;20036;-63
2020/12/09 11:06:27;;;;;;;21.27;13.07;;;-0.80;78.10;;;;;;5007624;28;20053;-63
2020/12/09 11:08:53;;;;;;;39.72;23.98;;;-0.80;78.00;;;;;;5010492;28;20032;-63
2020/12/09 11:11:18;;;;;;;32.85;20.52;;;-0.90;77.90;;;;;;5012844;28;20037;-63
2020/12/09 11:13:44;;;;;;;23.58;14.25;;;-0.90;78.20;;;;;;5009659;28;20144;-63
2020/12/09 11:16:17;;;;;;;20.55;13.60;;;-0.90;78.00;;;;;;5011736;28;20048;-63
2020/12/09 11:18:44;;;;;;;16.10;10.48;;;-0.90;78.00;;;;;;5016107;28;20029;-63
2020/12/09 11:21:10;;;;;;;18.25;11.40;;;-1.00;77.80;;;;;;5012752;28;20030;-63
2020/12/09 11:23:36;;;;;;;19.88;10.35;;;-0.90;78.30;;;;;;5014147;28;20038;-63
2020/12/09 11:26:06;;;;;;;28.67;18.67;;;-0.90;77.90;;;;;;5016045;28;20564;-63
2020/12/09 11:28:32;;;;;;;24.52;16.08;;;-1.00;77.90;;;;;;5014554;28;20030;-64
2020/12/09 11:30:57;;;;;;;22.70;12.88;;;-1.00;78.00;;;;;;5013175;28;20134;-64
2020/12/09 11:33:23;;;;;;;23.95;14.52;;;-1.00;78.00;;;;;;5015037;28;20064;-64
2020/12/09 11:35:49;;;;;;;20.15;12.48;;;-1.00;78.30;;;;;;5014062;28;20109;-64
2020/12/09 11:38:14;;;;;;;17.38;11.30;;;-1.00;77.90;;;;;;5016963;28;20473;-64
2020/12/09 11:40:40;;;;;;;18.73;11.77;;;-1.10;78.30;;;;;;5013746;28;20045;-64
2020/12/09 11:43:06;;;;;;;18.35;11.30;;;-1.00;78.50;;;;;;5007172;28;20039;-64
2020/12/09 11:45:34;;;;;;;22.50;13.02;;;-1.00;78.30;;;;;;5015999;28;20029;-64
2020/12/09 11:48:01;;;;;;;20.25;11.82;;;-1.00;78.00;;;;;;5013024;28;20034;-64
2020/12/09 11:50:26;;;;;;;19.58;12.18;;;-1.00;78.30;;;;;;5018408;28;20029;-64
2020/12/09 11:52:52;;;;;;;17.63;9.90;;;-1.00;78.60;;;;;;5010831;28;20022;-64
2020/12/09 11:55:18;;;;;;;22.70;11.70;;;-1.00;78.60;;;;;;5015080;28;20160;-61
2020/12/09 11:57:43;;;;;;;19.38;12.35;;;-0.90;78.70;;;;;;5012093;28;20358;-62
2020/12/09 12:00:09;;;;;;;21.48;11.70;;;-0.80;77.80;;;;;;5012192;28;20075;-64
2020/12/09 12:02:35;;;;;;;19.02;12.63;;;-0.90;77.30;;;;;;5012063;28;20040;-64
2020/12/09 12:05:02;;;;;;;17.25;10.27;;;-0.90;77.30;;;;;;5010836;28;20033;-64
2020/12/09 12:07:27;;;;;;;21.40;13.32;;;-0.90;78.00;;;;;;5011523;28;20124;-64
2020/12/09 12:09:53;;;;;;;21.83;12.73;;;-0.90;78.20;;;;;;5013227;28;20033;-64
2020/12/09 12:12:19;;;;;;;18.70;11.85;;;-0.90;78.50;;;;;;5019842;28;20541;-64
2020/12/09 12:14:45;;;;;;;17.70;10.77;;;-0.90;78.40;;;;;;5019942;28;20104;-64
2020/12/09 12:17:11;;;;;;;23.45;12.63;;;-0.90;78.40;;;;;;5012279;28;20025;-64
2020/12/09 12:19:37;;;;;;;17.13;10.40;;;-0.90;78.00;;;;;;5016235;28;20118;-64
2020/12/09 12:22:04;;;;;;;16.80;9.75;;;-0.90;78.20;;;;;;5015982;28;20033;-64
2020/12/09 12:24:30;;;;;;;23.45;12.40;;;-0.90;78.50;;;;;;5012141;28;20033;-64
2020/12/09 12:26:56;;;;;;;17.17;10.98;;;-0.80;78.30;;;;;;5013106;28;20044;-64
2020/12/09 12:29:21;;;;;;;18.25;11.00;;;-0.80;77.80;;;;;;5014275;28;20030;-64
2020/12/09 12:31:47;;;;;;;15.25;9.93;;;-0.90;77.80;;;;;;5013612;28;20035;-65
2020/12/09 12:34:13;;;;;;;19.52;11.48;;;-0.80;77.60;;;;;;5015418;28;20032;-63
2020/12/09 12:36:39;;;;;;;19.55;10.52;;;-0.80;77.60;;;;;;5017622;28;20033;-63
2020/12/09 12:39:06;;;;;;;18.42;11.40;;;-0.80;77.60;;;;;;5018629;28;20029;-64